sensor_id;sensor_type;location;lat;lon;timestamp;pressure;altitude;pressure_sealevel;temperature;humidity
61528;BME280;47395;42.032;-8.634;2023-02-14T00:00:30;102080.66;;;11.17;66.88
61528;BME280;47395;42.032;-8.634;2023-02-14T00:02:33;102079.88;;;11.14;67.22
61528;BME280;47395;42.032;-8.634;2023-02-14T00:04:33;102076.22;;;11.18;67.22
61528;BME280;47395;42.032;-8.634;2023-02-14T00:06:40;102072.09;;;11.09;67.28
61528;BME280;47395;42.032;-8.634;2023-02-14T00:08:41;102076.41;;;11.12;67.49
61528;BME280;47395;42.032;-8.634;2023-02-14T00:10:44;102082.59;;;11.10;67.33
61528;BME280;47395;42.032;-8.634;2023-02-14T00:12:47;102076.44;;;11.10;67.41
61528;BME280;47395;42.032;-8.634;2023-02-14T00:14:48;102074.84;;;11.04;66.84
61528;BME280;47395;42.032;-8.634;2023-02-14T00:17:07;102065.09;;;11.08;67.34
61528;BME280;47395;42.032;-8.634;2023-02-14T00:19:08;102065.97;;;11.07;66.39
61528;BME280;47395;42.032;-8.634;2023-02-14T00:21:13;102074.66;;;11.12;67.15
61528;BME280;47395;42.032;-8.634;2023-02-14T00:25:17;102064.06;;;11.14;67.14
61528;BME280;47395;42.032;-8.634;2023-02-14T00:27:18;102057.88;;;11.15;67.36
61528;BME280;47395;42.032;-8.634;2023-02-14T00:29:23;102059.59;;;11.16;67.02
61528;BME280;47395;42.032;-8.634;2023-02-14T00:31:24;102056.88;;;11.19;67.05
61528;BME280;47395;42.032;-8.634;2023-02-14T00:33:25;102055.22;;;11.15;66.47
61528;BME280;47395;42.032;-8.634;2023-02-14T00:35:25;102057.94;;;11.12;66.85
61528;BME280;47395;42.032;-8.634;2023-02-14T00:39:31;102056.03;;;11.17;66.50
61528;BME280;47395;42.032;-8.634;2023-02-14T00:41:32;102053.69;;;11.07;66.82
61528;BME280;47395;42.032;-8.634;2023-02-14T00:43:34;102037.50;;;11.20;67.13
61528;BME280;47395;42.032;-8.634;2023-02-14T00:45:37;102052.34;;;11.22;66.07
61528;BME280;47395;42.032;-8.634;2023-02-14T00:47:38;102038.22;;;10.95;66.26
61528;BME280;47395;42.032;-8.634;2023-02-14T00:49:39;102027.31;;;11.07;66.92
61528;BME280;47395;42.032;-8.634;2023-02-14T00:51:40;102033.63;;;11.02;65.74
61528;BME280;47395;42.032;-8.634;2023-02-14T00:53:40;102035.16;;;11.09;66.10
61528;BME280;47395;42.032;-8.634;2023-02-14T00:55:43;102036.91;;;11.10;66.26
61528;BME280;47395;42.032;-8.634;2023-02-14T00:57:44;102026.22;;;11.15;66.12
61528;BME280;47395;42.032;-8.634;2023-02-14T00:59:44;102023.97;;;11.01;65.85
61528;BME280;47395;42.032;-8.634;2023-02-14T01:01:45;102015.94;;;11.05;66.35
61528;BME280;47395;42.032;-8.634;2023-02-14T01:03:46;102026.50;;;11.05;66.27
61528;BME280;47395;42.032;-8.634;2023-02-14T01:05:47;102019.53;;;11.03;66.38
61528;BME280;47395;42.032;-8.634;2023-02-14T01:07:47;102021.44;;;10.97;66.15
61528;BME280;47395;42.032;-8.634;2023-02-14T01:09:48;102027.66;;;10.95;66.44
61528;BME280;47395;42.032;-8.634;2023-02-14T01:11:49;102019.97;;;10.87;66.43
61528;BME280;47395;42.032;-8.634;2023-02-14T01:13:50;102010.41;;;10.84;66.61
61528;BME280;47395;42.032;-8.634;2023-02-14T01:15:51;102012.31;;;10.79;66.92
61528;BME280;47395;42.032;-8.634;2023-02-14T01:17:52;102018.59;;;10.74;67.02
61528;BME280;47395;42.032;-8.634;2023-02-14T01:19:55;102005.75;;;10.63;67.38
61528;BME280;47395;42.032;-8.634;2023-02-14T01:22:01;102006.72;;;10.58;67.49
61528;BME280;47395;42.032;-8.634;2023-02-14T01:24:04;102006.13;;;10.49;67.34
61528;BME280;47395;42.032;-8.634;2023-02-14T01:26:05;102000.16;;;10.40;67.88
61528;BME280;47395;42.032;-8.634;2023-02-14T01:28:06;102002.09;;;10.34;68.08
61528;BME280;47395;42.032;-8.634;2023-02-14T01:30:08;102003.00;;;10.32;68.23
61528;BME280;47395;42.032;-8.634;2023-02-14T01:32:09;101997.91;;;10.26;68.12
61528;BME280;47395;42.032;-8.634;2023-02-14T01:34:09;101997.25;;;10.18;68.67
61528;BME280;47395;42.032;-8.634;2023-02-14T01:36:15;102006.13;;;10.14;68.78
61528;BME280;47395;42.032;-8.634;2023-02-14T01:38:16;101994.84;;;10.10;68.90
61528;BME280;47395;42.032;-8.634;2023-02-14T01:40:20;102001.06;;;10.08;68.76
61528;BME280;47395;42.032;-8.634;2023-02-14T01:42:21;101997.81;;;9.96;69.45
61528;BME280;47395;42.032;-8.634;2023-02-14T01:46:29;101991.94;;;9.85;69.04
61528;BME280;47395;42.032;-8.634;2023-02-14T01:48:30;101986.56;;;9.89;69.53
61528;BME280;47395;42.032;-8.634;2023-02-14T01:50:32;101991.09;;;9.84;69.35
61528;BME280;47395;42.032;-8.634;2023-02-14T01:52:35;101988.44;;;9.86;69.79
61528;BME280;47395;42.032;-8.634;2023-02-14T01:54:37;101986.66;;;9.86;69.65
61528;BME280;47395;42.032;-8.634;2023-02-14T01:56:41;101983.16;;;9.86;69.25
61528;BME280;47395;42.032;-8.634;2023-02-14T01:58:43;101983.41;;;9.76;69.45
61528;BME280;47395;42.032;-8.634;2023-02-14T02:00:45;101990.41;;;9.77;69.26
61528;BME280;47395;42.032;-8.634;2023-02-14T02:02:57;101996.66;;;9.72;69.55
61528;BME280;47395;42.032;-8.634;2023-02-14T02:04:59;101996.84;;;9.65;69.47
61528;BME280;47395;42.032;-8.634;2023-02-14T02:07:01;101992.56;;;9.60;69.92
61528;BME280;47395;42.032;-8.634;2023-02-14T02:09:16;101987.41;;;9.55;70.01
61528;BME280;47395;42.032;-8.634;2023-02-14T02:11:18;101984.06;;;9.48;70.35
61528;BME280;47395;42.032;-8.634;2023-02-14T02:13:27;101988.41;;;9.49;70.60
61528;BME280;47395;42.032;-8.634;2023-02-14T02:15:34;101994.75;;;9.42;70.28
61528;BME280;47395;42.032;-8.634;2023-02-14T02:18:01;101989.47;;;9.42;70.42
61528;BME280;47395;42.032;-8.634;2023-02-14T02:21:09;101976.44;;;9.37;70.03
61528;BME280;47395;42.032;-8.634;2023-02-14T02:22:44;101981.84;;;9.31;70.83
61528;BME280;47395;42.032;-8.634;2023-02-14T02:24:54;101982.50;;;9.41;70.47
61528;BME280;47395;42.032;-8.634;2023-02-14T02:29:41;101980.34;;;9.59;69.88
61528;BME280;47395;42.032;-8.634;2023-02-14T02:39:27;101965.75;;;9.45;71.13
61528;BME280;47395;42.032;-8.634;2023-02-14T02:41:37;101954.19;;;9.51;71.31
61528;BME280;47395;42.032;-8.634;2023-02-14T02:46:04;101956.78;;;9.52;70.97
61528;BME280;47395;42.032;-8.634;2023-02-14T02:50:56;101953.31;;;9.52;70.83
61528;BME280;47395;42.032;-8.634;2023-02-14T02:53:22;101947.19;;;9.50;71.13
61528;BME280;47395;42.032;-8.634;2023-02-14T02:55:29;101952.75;;;9.37;71.10
61528;BME280;47395;42.032;-8.634;2023-02-14T02:57:53;101945.75;;;9.38;71.18
61528;BME280;47395;42.032;-8.634;2023-02-14T02:59:58;101936.91;;;9.40;71.35
61528;BME280;47395;42.032;-8.634;2023-02-14T03:02:19;101944.53;;;9.51;71.17
61528;BME280;47395;42.032;-8.634;2023-02-14T03:04:22;101936.47;;;9.58;70.50
61528;BME280;47395;42.032;-8.634;2023-02-14T03:06:46;101944.44;;;9.56;70.18
61528;BME280;47395;42.032;-8.634;2023-02-14T03:08:51;101938.31;;;9.56;70.19
61528;BME280;47395;42.032;-8.634;2023-02-14T03:10:52;101938.31;;;9.56;70.12
61528;BME280;47395;42.032;-8.634;2023-02-14T03:17:21;101933.34;;;9.43;70.27
61528;BME280;47395;42.032;-8.634;2023-02-14T03:19:28;101937.22;;;9.26;70.52
61528;BME280;47395;42.032;-8.634;2023-02-14T03:21:59;101924.94;;;9.29;70.96
61528;BME280;47395;42.032;-8.634;2023-02-14T03:26:18;101920.09;;;9.10;71.06
61528;BME280;47395;42.032;-8.634;2023-02-14T03:28:29;101922.69;;;9.11;71.60
61528;BME280;47395;42.032;-8.634;2023-02-14T03:30:37;101920.59;;;9.26;71.34
61528;BME280;47395;42.032;-8.634;2023-02-14T03:32:57;101912.47;;;9.37;70.44
61528;BME280;47395;42.032;-8.634;2023-02-14T03:35:02;101917.88;;;9.29;70.21
61528;BME280;47395;42.032;-8.634;2023-02-14T03:37:09;101906.53;;;9.29;70.50
61528;BME280;47395;42.032;-8.634;2023-02-14T03:39:24;101900.31;;;9.31;70.65
61528;BME280;47395;42.032;-8.634;2023-02-14T03:41:28;101901.09;;;9.35;70.35
61528;BME280;47395;42.032;-8.634;2023-02-14T03:43:32;101904.94;;;9.21;70.33
61528;BME280;47395;42.032;-8.634;2023-02-14T03:45:42;101888.84;;;9.34;71.72
61528;BME280;47395;42.032;-8.634;2023-02-14T03:47:45;101899.28;;;9.38;70.88
61528;BME280;47395;42.032;-8.634;2023-02-14T03:49:49;101899.03;;;9.48;69.88
61528;BME280;47395;42.032;-8.634;2023-02-14T03:51:53;101900.03;;;9.44;69.99
61528;BME280;47395;42.032;-8.634;2023-02-14T03:53:55;101891.06;;;9.51;69.88
61528;BME280;47395;42.032;-8.634;2023-02-14T03:56:00;101890.47;;;9.39;69.85
61528;BME280;47395;42.032;-8.634;2023-02-14T03:58:10;101887.88;;;9.38;69.72
61528;BME280;47395;42.032;-8.634;2023-02-14T04:00:16;101880.78;;;9.40;70.00
61528;BME280;47395;42.032;-8.634;2023-02-14T04:02:19;101879.13;;;9.37;70.95
61528;BME280;47395;42.032;-8.634;2023-02-14T04:04:23;101877.19;;;9.44;70.46
61528;BME280;47395;42.032;-8.634;2023-02-14T04:06:25;101881.69;;;9.40;69.91
61528;BME280;47395;42.032;-8.634;2023-02-14T04:08:27;101876.41;;;9.40;69.89
61528;BME280;47395;42.032;-8.634;2023-02-14T04:10:28;101868.97;;;9.23;70.56
61528;BME280;47395;42.032;-8.634;2023-02-14T04:12:29;101873.06;;;9.34;71.08
61528;BME280;47395;42.032;-8.634;2023-02-14T04:14:29;101869.41;;;9.41;70.30
61528;BME280;47395;42.032;-8.634;2023-02-14T04:16:30;101869.25;;;9.46;69.94
61528;BME280;47395;42.032;-8.634;2023-02-14T04:18:51;101872.84;;;9.43;69.48
61528;BME280;47395;42.032;-8.634;2023-02-14T04:21:10;101873.94;;;9.34;69.64
61528;BME280;47395;42.032;-8.634;2023-02-14T04:23:10;101872.59;;;9.18;69.98
61528;BME280;47395;42.032;-8.634;2023-02-14T04:25:11;101866.47;;;9.17;70.33
61528;BME280;47395;42.032;-8.634;2023-02-14T04:27:12;101875.44;;;9.08;70.27
61528;BME280;47395;42.032;-8.634;2023-02-14T04:29:13;101866.72;;;9.06;70.30
61528;BME280;47395;42.032;-8.634;2023-02-14T04:31:14;101874.97;;;8.91;71.07
61528;BME280;47395;42.032;-8.634;2023-02-14T04:33:15;101871.38;;;8.95;72.00
61528;BME280;47395;42.032;-8.634;2023-02-14T04:35:15;101867.63;;;9.05;71.30
61528;BME280;47395;42.032;-8.634;2023-02-14T04:37:17;101863.09;;;9.12;70.56
61528;BME280;47395;42.032;-8.634;2023-02-14T04:39:18;101868.41;;;9.09;70.29
61528;BME280;47395;42.032;-8.634;2023-02-14T04:41:19;101870.47;;;8.96;70.01
61528;BME280;47395;42.032;-8.634;2023-02-14T04:43:20;101867.88;;;8.94;70.33
61528;BME280;47395;42.032;-8.634;2023-02-14T04:45:21;101874.13;;;8.88;70.43
61528;BME280;47395;42.032;-8.634;2023-02-14T04:47:21;101866.44;;;8.81;70.25
61528;BME280;47395;42.032;-8.634;2023-02-14T04:49:23;101871.75;;;8.78;70.67
61528;BME280;47395;42.032;-8.634;2023-02-14T04:51:23;101865.75;;;8.72;70.56
61528;BME280;47395;42.032;-8.634;2023-02-14T04:53:24;101865.16;;;8.59;71.23
61528;BME280;47395;42.032;-8.634;2023-02-14T04:55:25;101866.88;;;8.60;71.34
61528;BME280;47395;42.032;-8.634;2023-02-14T04:57:25;101868.84;;;8.49;71.13
61528;BME280;47395;42.032;-8.634;2023-02-14T04:59:26;101877.88;;;8.35;71.43
61528;BME280;47395;42.032;-8.634;2023-02-14T05:03:50;101877.13;;;8.30;72.40
61528;BME280;47395;42.032;-8.634;2023-02-14T05:05:51;101879.84;;;8.26;72.35
61528;BME280;47395;42.032;-8.634;2023-02-14T05:07:51;101874.25;;;8.43;72.29
61528;BME280;47395;42.032;-8.634;2023-02-14T05:09:52;101873.31;;;8.45;71.83
61528;BME280;47395;42.032;-8.634;2023-02-14T05:11:55;101875.00;;;8.48;71.28
61528;BME280;47395;42.032;-8.634;2023-02-14T05:13:56;101876.91;;;8.40;71.41
61528;BME280;47395;42.032;-8.634;2023-02-14T05:15:57;101868.28;;;8.34;71.44
61528;BME280;47395;42.032;-8.634;2023-02-14T05:17:58;101866.38;;;8.41;71.82
61528;BME280;47395;42.032;-8.634;2023-02-14T05:20:03;101864.63;;;8.42;71.47
61528;BME280;47395;42.032;-8.634;2023-02-14T05:22:05;101863.00;;;8.36;71.54
61528;BME280;47395;42.032;-8.634;2023-02-14T05:24:05;101864.72;;;8.37;71.41
61528;BME280;47395;42.032;-8.634;2023-02-14T05:26:06;101858.69;;;8.33;71.35
61528;BME280;47395;42.032;-8.634;2023-02-14T05:28:07;101860.44;;;8.33;71.42
61528;BME280;47395;42.032;-8.634;2023-02-14T05:30:08;101864.91;;;8.28;70.76
61528;BME280;47395;42.032;-8.634;2023-02-14T05:32:09;101864.22;;;8.18;71.30
61528;BME280;47395;42.032;-8.634;2023-02-14T05:34:10;101864.25;;;8.16;71.72
61528;BME280;47395;42.032;-8.634;2023-02-14T05:36:11;101869.47;;;8.18;71.59
61528;BME280;47395;42.032;-8.634;2023-02-14T05:38:11;101866.84;;;8.18;71.83
61528;BME280;47395;42.032;-8.634;2023-02-14T05:40:13;101863.25;;;8.23;71.63
61528;BME280;47395;42.032;-8.634;2023-02-14T05:42:17;101851.72;;;8.31;71.56
61528;BME280;47395;42.032;-8.634;2023-02-14T05:44:18;101859.69;;;8.26;71.22
61528;BME280;47395;42.032;-8.634;2023-02-14T05:46:21;101856.09;;;8.32;71.13
61528;BME280;47395;42.032;-8.634;2023-02-14T05:48:21;101859.59;;;8.32;71.37
61528;BME280;47395;42.032;-8.634;2023-02-14T05:50:26;101848.84;;;8.43;71.16
61528;BME280;47395;42.032;-8.634;2023-02-14T05:52:27;101849.66;;;8.45;70.86
61528;BME280;47395;42.032;-8.634;2023-02-14T05:54:31;101850.56;;;8.44;70.53
61528;BME280;47395;42.032;-8.634;2023-02-14T05:56:31;101853.78;;;8.59;71.04
61528;BME280;47395;42.032;-8.634;2023-02-14T05:58:35;101851.91;;;8.64;69.88
61528;BME280;47395;42.032;-8.634;2023-02-14T06:00:35;101847.94;;;8.85;69.75
61528;BME280;47395;42.032;-8.634;2023-02-14T06:02:37;101850.22;;;8.99;69.72
61528;BME280;47395;42.032;-8.634;2023-02-14T06:04:38;101849.25;;;9.04;68.96
61528;BME280;47395;42.032;-8.634;2023-02-14T06:06:43;101853.94;;;8.92;68.56
61528;BME280;47395;42.032;-8.634;2023-02-14T06:08:44;101847.88;;;8.87;68.81
61528;BME280;47395;42.032;-8.634;2023-02-14T06:10:44;101859.00;;;8.60;69.50
61528;BME280;47395;42.032;-8.634;2023-02-14T06:12:47;101842.81;;;8.79;70.35
61528;BME280;47395;42.032;-8.634;2023-02-14T06:14:48;101847.94;;;8.85;69.24
61528;BME280;47395;42.032;-8.634;2023-02-14T06:16:49;101835.66;;;8.86;69.08
61528;BME280;47395;42.032;-8.634;2023-02-14T06:18:50;101843.50;;;8.87;69.20
61528;BME280;47395;42.032;-8.634;2023-02-14T06:20:51;101843.47;;;8.89;68.70
61528;BME280;47395;42.032;-8.634;2023-02-14T06:22:55;101852.44;;;8.80;68.79
61528;BME280;47395;42.032;-8.634;2023-02-14T06:24:59;101841.03;;;8.81;69.06
61528;BME280;47395;42.032;-8.634;2023-02-14T06:27:00;101845.47;;;8.78;69.11
61528;BME280;47395;42.032;-8.634;2023-02-14T06:29:01;101842.84;;;8.78;69.50
61528;BME280;47395;42.032;-8.634;2023-02-14T06:31:02;101836.81;;;8.74;69.40
61528;BME280;47395;42.032;-8.634;2023-02-14T06:33:03;101835.72;;;8.83;68.95
61528;BME280;47395;42.032;-8.634;2023-02-14T06:35:07;101831.47;;;8.79;68.99
61528;BME280;47395;42.032;-8.634;2023-02-14T06:37:08;101847.34;;;8.72;69.14
61528;BME280;47395;42.032;-8.634;2023-02-14T06:39:09;101838.78;;;8.64;68.84
61528;BME280;47395;42.032;-8.634;2023-02-14T06:41:10;101846.13;;;8.46;69.16
61528;BME280;47395;42.032;-8.634;2023-02-14T06:43:11;101846.06;;;8.51;69.54
61528;BME280;47395;42.032;-8.634;2023-02-14T06:45:14;101847.94;;;8.44;69.56
61528;BME280;47395;42.032;-8.634;2023-02-14T06:47:15;101841.09;;;8.37;69.73
61528;BME280;47395;42.032;-8.634;2023-02-14T06:49:16;101857.06;;;8.26;69.32
61528;BME280;47395;42.032;-8.634;2023-02-14T06:51:16;101847.56;;;8.20;70.20
61528;BME280;47395;42.032;-8.634;2023-02-14T06:53:17;101852.25;;;8.04;70.42
61528;BME280;47395;42.032;-8.634;2023-02-14T06:55:25;101847.72;;;8.13;70.81
61528;BME280;47395;42.032;-8.634;2023-02-14T06:57:26;101851.09;;;8.19;70.40
61528;BME280;47395;42.032;-8.634;2023-02-14T06:59:27;101845.81;;;8.21;70.26
61528;BME280;47395;42.032;-8.634;2023-02-14T07:01:27;101842.28;;;8.22;70.13
61528;BME280;47395;42.032;-8.634;2023-02-14T07:03:30;101851.84;;;8.25;69.94
61528;BME280;47395;42.032;-8.634;2023-02-14T07:05:31;101857.09;;;8.25;69.86
61528;BME280;47395;42.032;-8.634;2023-02-14T07:07:32;101848.41;;;8.22;69.88
61528;BME280;47395;42.032;-8.634;2023-02-14T07:09:32;101854.44;;;8.26;69.82
61528;BME280;47395;42.032;-8.634;2023-02-14T07:11:33;101853.66;;;8.22;69.95
61528;BME280;47395;42.032;-8.634;2023-02-14T07:13:34;101864.00;;;8.29;70.09
61528;BME280;47395;42.032;-8.634;2023-02-14T07:15:35;101863.16;;;8.28;69.74
61528;BME280;47395;42.032;-8.634;2023-02-14T07:17:36;101857.06;;;8.26;69.36
61528;BME280;47395;42.032;-8.634;2023-02-14T07:19:37;101856.16;;;8.27;69.35
61528;BME280;47395;42.032;-8.634;2023-02-14T07:21:38;101859.53;;;8.34;69.63
61528;BME280;47395;42.032;-8.634;2023-02-14T07:23:40;101862.09;;;8.37;69.33
61528;BME280;47395;42.032;-8.634;2023-02-14T07:25:41;101858.44;;;8.46;69.18
61528;BME280;47395;42.032;-8.634;2023-02-14T07:27:43;101856.56;;;8.51;69.29
61528;BME280;47395;42.032;-8.634;2023-02-14T07:29:43;101848.50;;;8.60;69.26
61528;BME280;47395;42.032;-8.634;2023-02-14T07:31:44;101848.44;;;8.64;69.87
61528;BME280;47395;42.032;-8.634;2023-02-14T07:33:50;101850.81;;;8.74;68.56
61528;BME280;47395;42.032;-8.634;2023-02-14T07:35:51;101856.59;;;8.91;68.54
61528;BME280;47395;42.032;-8.634;2023-02-14T07:37:52;101851.06;;;9.01;68.92
61528;BME280;47395;42.032;-8.634;2023-02-14T07:39:52;101855.88;;;9.20;67.54
61528;BME280;47395;42.032;-8.634;2023-02-14T07:41:53;101857.09;;;9.07;66.69
61528;BME280;47395;42.032;-8.634;2023-02-14T07:43:54;101851.97;;;9.37;68.67
61528;BME280;47395;42.032;-8.634;2023-02-14T07:45:54;101853.34;;;9.52;66.17
61528;BME280;47395;42.032;-8.634;2023-02-14T07:47:55;101849.56;;;9.62;66.30
61528;BME280;47395;42.032;-8.634;2023-02-14T07:49:58;101859.88;;;9.70;64.56
61528;BME280;47395;42.032;-8.634;2023-02-14T07:51:59;101864.00;;;9.81;65.31
61528;BME280;47395;42.032;-8.634;2023-02-14T07:53:59;101851.38;;;9.92;64.23
61528;BME280;47395;42.032;-8.634;2023-02-14T07:56:00;101852.91;;;9.68;64.68
61528;BME280;47395;42.032;-8.634;2023-02-14T07:58:00;101865.53;;;9.88;65.81
61528;BME280;47395;42.032;-8.634;2023-02-14T08:00:02;101854.84;;;9.94;65.47
61528;BME280;47395;42.032;-8.634;2023-02-14T08:02:12;101862.59;;;9.99;64.73
61528;BME280;47395;42.032;-8.634;2023-02-14T08:04:14;101864.84;;;10.13;64.85
61528;BME280;47395;42.032;-8.634;2023-02-14T08:06:15;101862.69;;;10.27;63.62
61528;BME280;47395;42.032;-8.634;2023-02-14T08:08:16;101859.06;;;10.31;63.08
61528;BME280;47395;42.032;-8.634;2023-02-14T08:10:18;101860.69;;;10.36;62.63
61528;BME280;47395;42.032;-8.634;2023-02-14T08:12:18;101863.41;;;10.32;62.30
61528;BME280;47395;42.032;-8.634;2023-02-14T08:14:37;101856.88;;;10.46;62.39
61528;BME280;47395;42.032;-8.634;2023-02-14T08:16:38;101856.81;;;10.49;62.35
61528;BME280;47395;42.032;-8.634;2023-02-14T08:18:44;101860.13;;;10.56;61.97
61528;BME280;47395;42.032;-8.634;2023-02-14T08:20:46;101857.44;;;10.57;62.25
61528;BME280;47395;42.032;-8.634;2023-02-14T08:22:49;101856.91;;;10.75;62.03
61528;BME280;47395;42.032;-8.634;2023-02-14T08:24:49;101852.66;;;10.97;62.72
61528;BME280;47395;42.032;-8.634;2023-02-14T08:26:50;101851.09;;;11.20;60.50
61528;BME280;47395;42.032;-8.634;2023-02-14T08:28:51;101854.75;;;11.42;60.46
61528;BME280;47395;42.032;-8.634;2023-02-14T08:30:53;101865.75;;;11.55;59.36
61528;BME280;47395;42.032;-8.634;2023-02-14T08:32:55;101854.81;;;11.66;58.74
61528;BME280;47395;42.032;-8.634;2023-02-14T08:34:56;101856.16;;;11.78;58.98
61528;BME280;47395;42.032;-8.634;2023-02-14T08:36:57;101851.69;;;12.04;58.47
61528;BME280;47395;42.032;-8.634;2023-02-14T08:38:58;101847.75;;;12.86;56.90
61528;BME280;47395;42.032;-8.634;2023-02-14T08:40:59;101849.69;;;14.26;53.14
61528;BME280;47395;42.032;-8.634;2023-02-14T08:43:00;101835.63;;;15.70;48.06
61528;BME280;47395;42.032;-8.634;2023-02-14T08:45:01;101837.84;;;17.39;44.75
61528;BME280;47395;42.032;-8.634;2023-02-14T08:47:02;101838.94;;;18.09;41.78
61528;BME280;47395;42.032;-8.634;2023-02-14T08:49:02;101833.28;;;18.71;41.04
61528;BME280;47395;42.032;-8.634;2023-02-14T08:51:07;101835.41;;;18.65;40.31
61528;BME280;47395;42.032;-8.634;2023-02-14T08:53:09;101835.69;;;17.90;41.61
61528;BME280;47395;42.032;-8.634;2023-02-14T08:55:11;101835.66;;;17.46;43.08
61528;BME280;47395;42.032;-8.634;2023-02-14T08:57:12;101833.41;;;17.83;42.60
61528;BME280;47395;42.032;-8.634;2023-02-14T08:59:14;101827.28;;;17.52;42.77
61528;BME280;47395;42.032;-8.634;2023-02-14T09:01:16;101831.38;;;18.73;40.97
61528;BME280;47395;42.032;-8.634;2023-02-14T09:03:16;101822.25;;;19.43;39.34
61528;BME280;47395;42.032;-8.634;2023-02-14T09:05:17;101815.91;;;20.09;38.37
61528;BME280;47395;42.032;-8.634;2023-02-14T09:07:18;101819.22;;;20.62;36.38
61528;BME280;47395;42.032;-8.634;2023-02-14T09:09:19;101829.19;;;21.09;35.14
61528;BME280;47395;42.032;-8.634;2023-02-14T09:11:20;101826.88;;;21.86;34.95
61528;BME280;47395;42.032;-8.634;2023-02-14T09:13:21;101833.56;;;22.26;33.40
61528;BME280;47395;42.032;-8.634;2023-02-14T09:15:22;101822.16;;;23.53;32.05
61528;BME280;47395;42.032;-8.634;2023-02-14T09:17:22;101821.03;;;24.48;30.98
61528;BME280;47395;42.032;-8.634;2023-02-14T09:19:23;101831.41;;;24.62;29.54
61528;BME280;47395;42.032;-8.634;2023-02-14T09:21:25;101822.59;;;24.50;30.43
61528;BME280;47395;42.032;-8.634;2023-02-14T09:23:26;101825.84;;;23.93;30.23
61528;BME280;47395;42.032;-8.634;2023-02-14T09:25:26;101814.50;;;24.80;29.97
61528;BME280;47395;42.032;-8.634;2023-02-14T09:27:29;101820.94;;;25.47;28.76
61528;BME280;47395;42.032;-8.634;2023-02-14T09:29:32;101826.06;;;25.40;27.57
61528;BME280;47395;42.032;-8.634;2023-02-14T09:31:33;101830.59;;;25.59;28.54
61528;BME280;47395;42.032;-8.634;2023-02-14T09:33:34;101829.00;;;25.66;27.58
61528;BME280;47395;42.032;-8.634;2023-02-14T09:35:35;101829.91;;;25.37;28.33
61528;BME280;47395;42.032;-8.634;2023-02-14T09:37:54;101830.53;;;26.53;26.83
61528;BME280;47395;42.032;-8.634;2023-02-14T09:39:56;101838.03;;;27.22;25.68
61528;BME280;47395;42.032;-8.634;2023-02-14T09:42:20;101830.63;;;27.78;25.18
61528;BME280;47395;42.032;-8.634;2023-02-14T09:46:27;101834.72;;;27.98;24.94
61528;BME280;47395;42.032;-8.634;2023-02-14T09:48:33;101835.69;;;28.32;24.48
61528;BME280;47395;42.032;-8.634;2023-02-14T09:50:37;101825.06;;;28.56;23.75
61528;BME280;47395;42.032;-8.634;2023-02-14T09:52:40;101826.81;;;28.90;23.61
61528;BME280;47395;42.032;-8.634;2023-02-14T09:54:41;101830.81;;;29.19;22.65
61528;BME280;47395;42.032;-8.634;2023-02-14T10:00:57;101834.25;;;30.65;21.26
61528;BME280;47395;42.032;-8.634;2023-02-14T10:05:17;101832.78;;;29.50;22.39
61528;BME280;47395;42.032;-8.634;2023-02-14T10:07:33;101834.03;;;29.88;21.15
61528;BME280;47395;42.032;-8.634;2023-02-14T10:10:02;101841.66;;;30.79;21.53
61528;BME280;47395;42.032;-8.634;2023-02-14T10:12:28;101834.28;;;30.88;22.12
61528;BME280;47395;42.032;-8.634;2023-02-14T10:14:31;101829.63;;;32.02;19.33
61528;BME280;47395;42.032;-8.634;2023-02-14T10:16:36;101835.84;;;31.96;18.88
61528;BME280;47395;42.032;-8.634;2023-02-14T10:18:41;101832.38;;;31.57;19.20
61528;BME280;47395;42.032;-8.634;2023-02-14T10:20:44;101836.00;;;32.47;18.94
61528;BME280;47395;42.032;-8.634;2023-02-14T10:22:49;101835.03;;;31.50;19.21
61528;BME280;47395;42.032;-8.634;2023-02-14T10:24:54;101831.78;;;31.17;19.65
61528;BME280;47395;42.032;-8.634;2023-02-14T10:27:02;101828.06;;;31.33;19.72
61528;BME280;47395;42.032;-8.634;2023-02-14T10:29:04;101819.28;;;31.98;19.85
61528;BME280;47395;42.032;-8.634;2023-02-14T10:31:19;101824.91;;;31.59;19.23
61528;BME280;47395;42.032;-8.634;2023-02-14T10:33:20;101827.56;;;30.52;20.23
61528;BME280;47395;42.032;-8.634;2023-02-14T10:35:31;101815.09;;;29.06;22.80
61528;BME280;47395;42.032;-8.634;2023-02-14T10:37:50;101826.81;;;27.35;25.43
61528;BME280;47395;42.032;-8.634;2023-02-14T10:44:09;101812.16;;;24.87;27.61
61528;BME280;47395;42.032;-8.634;2023-02-14T10:54:57;101796.03;;;21.80;34.22
61528;BME280;47395;42.032;-8.634;2023-02-14T10:57:03;101795.66;;;21.73;34.47
61528;BME280;47395;42.032;-8.634;2023-02-14T10:59:23;101800.78;;;21.99;34.40
61528;BME280;47395;42.032;-8.634;2023-02-14T11:01:25;101793.97;;;21.84;34.84
61528;BME280;47395;42.032;-8.634;2023-02-14T11:03:26;101792.75;;;21.76;34.80
61528;BME280;47395;42.032;-8.634;2023-02-14T11:05:30;101794.94;;;22.38;34.50
61528;BME280;47395;42.032;-8.634;2023-02-14T11:07:32;101781.13;;;24.02;31.34
61528;BME280;47395;42.032;-8.634;2023-02-14T11:09:32;101780.72;;;25.15;30.13
61528;BME280;47395;42.032;-8.634;2023-02-14T11:11:52;101779.19;;;26.53;28.64
61528;BME280;47395;42.032;-8.634;2023-02-14T11:13:53;101783.53;;;27.44;27.01
61528;BME280;47395;42.032;-8.634;2023-02-14T11:15:57;101786.09;;;28.40;25.85
61528;BME280;47395;42.032;-8.634;2023-02-14T11:18:09;101771.50;;;29.16;24.73
61528;BME280;47395;42.032;-8.634;2023-02-14T11:22:33;101773.97;;;30.38;23.88
61528;BME280;47395;42.032;-8.634;2023-02-14T11:24:35;101765.00;;;30.76;22.72
61528;BME280;47395;42.032;-8.634;2023-02-14T11:26:36;101761.44;;;31.81;21.18
61528;BME280;47395;42.032;-8.634;2023-02-14T11:28:42;101755.81;;;31.82;21.38
61528;BME280;47395;42.032;-8.634;2023-02-14T11:30:46;101749.38;;;31.53;21.60
61528;BME280;47395;42.032;-8.634;2023-02-14T11:38:28;101740.44;;;31.96;20.76
61528;BME280;47395;42.032;-8.634;2023-02-14T11:42:32;101729.41;;;32.04;20.88
61528;BME280;47395;42.032;-8.634;2023-02-14T11:44:33;101728.28;;;32.64;20.55